"WATCHING THE WEATHER TO PROTECT LIFE AND PROPERTY"


AKTUALMENTE NO TIN NINGUN VIGILANSIA ÒF ATVERTENSIA


Satelit (InfraRojo)


TNCA 140700Z 09015KT 9999 BKN017 29/25 Q1013 NOSIG
TNCB 140755Z AUTO 08012KT 9999 FEW017/// 29/25 Q1013
TNCC 140700Z 09012KT 9999 VCSH BKN017TCU 29/26 Q1014 NOSIG=